Terminal Aerodrome Forecast
Issued by NWS Albany, NY

Home | Current Version | Previous Version | Text Only | Print | Product List | Glossary On
Versions: 1 2 3 4 5 6 7 8 9 10 11 12 13 14 15 16 17 18 19
767
FTUS41 KALY 250703 AAA
TAFPOU
TAF AMD
KPOU 250703Z 2507/2606 VRB04KT 6SM BR BKN020
     FM251000 17003KT 3SM BR OVC008
     FM251500 17008G15KT 6SM BR SCT015 BKN035
     FM252100 24015G25KT 2SM TSRA BR BKN015CB OVC040
     FM260000 29015G28KT 5SM -SHRA BR VCTS BKN015CB OVC040
     FM260300 29018G29KT 6SM BR VCSH BKN015=

USA.gov is the U.S. government's official web portal to all federal, state and local government web resources and services.